createdAt,value
2023-05-19T00:01:20.540Z,72.61
2023-05-19T00:03:57.917Z,72.67
2023-05-19T00:06:31.842Z,73.01
2023-05-19T00:09:02.757Z,72.71
2023-05-19T00:11:30.589Z,73.00
2023-05-19T00:13:59.282Z,72.81
2023-05-19T00:16:28.128Z,73.31
2023-05-19T00:18:55.395Z,73.71
2023-05-19T00:21:22.323Z,73.35
2023-05-19T00:23:49.397Z,72.80
2023-05-19T00:26:16.253Z,72.61
2023-05-19T00:28:53.652Z,72.95
2023-05-19T00:31:20.692Z,72.96
2023-05-19T00:33:47.634Z,73.06
2023-05-19T00:36:14.625Z,73.23
2023-05-19T00:38:41.568Z,73.30
2023-05-19T00:41:08.555Z,73.74
2023-05-19T00:43:35.566Z,73.88
2023-05-19T00:46:03.300Z,73.75
2023-05-19T00:48:30.311Z,73.96
2023-05-19T00:51:02.493Z,73.67
2023-05-19T00:53:30.229Z,73.75
2023-05-19T00:55:58.058Z,73.70
2023-05-19T00:58:29.347Z,73.59
2023-05-19T01:01:04.568Z,73.27
2023-05-19T01:03:35.233Z,73.15
2023-05-19T01:06:06.080Z,73.00
2023-05-19T01:08:34.445Z,72.77
2023-05-19T01:11:02.134Z,72.74
2023-05-19T01:13:30.465Z,72.71
2023-05-19T01:16:06.824Z,72.74
2023-05-19T01:19:01.857Z,72.80
2023-05-19T01:21:44.593Z,72.40
2023-05-19T01:24:30.690Z,72.38
2023-05-19T01:27:35.816Z,72.70
2023-05-19T01:30:23.397Z,72.87
2023-05-19T01:32:53.592Z,72.89
2023-05-19T01:35:24.916Z,72.96
2023-05-19T01:37:58.500Z,73.11
2023-05-19T01:40:26.744Z,73.41
2023-05-19T01:42:59.083Z,73.71
2023-05-19T01:45:30.753Z,73.78
2023-05-19T01:47:59.994Z,73.83
2023-05-19T01:50:28.187Z,73.99
2023-05-19T01:52:55.578Z,74.50
2023-05-19T01:55:23.886Z,74.94
2023-05-19T01:58:00.061Z,74.96
2023-05-19T02:00:36.445Z,74.99
2023-05-19T02:03:41.581Z,75.29
2023-05-19T02:06:08.476Z,75.28
2023-05-19T02:08:45.811Z,75.92
2023-05-19T02:11:19.786Z,75.51
2023-05-19T02:13:51.338Z,75.13
2023-05-19T02:16:20.725Z,75.28
2023-05-19T02:18:48.167Z,75.41
2023-05-19T02:21:15.252Z,75.38
2023-05-19T02:23:42.266Z,75.27
2023-05-19T02:26:09.422Z,75.11
2023-05-19T02:28:36.695Z,75.24
2023-05-19T02:31:06.505Z,75.51
2023-05-19T02:33:33.361Z,75.56
2023-05-19T02:36:00.295Z,75.38
2023-05-19T02:38:27.275Z,75.31
2023-05-19T02:40:54.148Z,75.27
2023-05-19T02:43:21.072Z,75.11
2023-05-19T02:45:48.023Z,75.06
2023-05-19T02:48:14.969Z,75.02
2023-05-19T02:50:43.074Z,74.88
2023-05-19T02:53:10.010Z,74.52
2023-05-19T02:55:37.382Z,74.44
2023-05-19T02:58:04.298Z,74.20
2023-05-19T03:00:31.508Z,74.17
2023-05-19T03:03:02.836Z,74.24
2023-05-19T03:05:32.713Z,73.92
2023-05-19T03:07:59.624Z,73.82
2023-05-19T03:10:26.611Z,74.02
2023-05-19T03:12:53.587Z,73.99
2023-05-19T03:15:22.954Z,73.89
2023-05-19T03:17:50.040Z,73.68
2023-05-19T03:20:17.129Z,73.64
2023-05-19T03:22:44.212Z,73.47
2023-05-19T03:25:11.145Z,73.85
2023-05-19T03:27:38.150Z,74.18
2023-05-19T03:30:06.981Z,74.33
2023-05-19T03:32:40.174Z,74.41
2023-05-19T03:35:07.550Z,74.28
2023-05-19T03:37:34.812Z,74.06
2023-05-19T03:40:02.449Z,74.60
2023-05-19T03:42:30.152Z,74.34
2023-05-19T03:44:57.171Z,74.26
2023-05-19T03:47:24.341Z,74.13
2023-05-19T03:50:10.473Z,73.98
2023-05-19T03:52:57.040Z,73.65
2023-05-19T03:55:30.079Z,73.25
2023-05-19T03:57:57.453Z,73.20
2023-05-19T04:00:24.561Z,73.09
2023-05-19T04:02:51.928Z,73.03
2023-05-19T04:05:19.105Z,72.93
2023-05-19T04:07:46.944Z,72.91
2023-05-19T04:10:13.946Z,72.60
2023-05-19T04:12:41.372Z,72.35
2023-05-19T04:15:11.466Z,71.86
2023-05-19T04:17:38.781Z,71.59
2023-05-19T04:20:06.724Z,71.38
2023-05-19T04:22:33.959Z,71.00
2023-05-19T04:25:00.945Z,70.45
2023-05-19T04:27:30.102Z,70.31
2023-05-19T04:29:58.193Z,70.13
2023-05-19T04:32:25.946Z,69.84
2023-05-19T04:34:54.350Z,69.75
2023-05-19T04:37:28.466Z,69.37
2023-05-19T04:39:55.789Z,69.40
2023-05-19T04:42:26.362Z,69.52
2023-05-19T04:44:54.788Z,69.67
2023-05-19T04:47:28.203Z,69.87
2023-05-19T04:49:55.925Z,69.82
2023-05-19T04:52:23.831Z,69.84
2023-05-19T04:54:53.004Z,69.63
2023-05-19T04:57:20.193Z,69.68
2023-05-19T04:59:47.167Z,69.98
2023-05-19T05:02:16.320Z,69.67
2023-05-19T05:04:44.134Z,69.57
2023-05-19T05:07:11.223Z,69.08
2023-05-19T05:09:38.862Z,69.05
2023-05-19T05:12:08.107Z,68.52
2023-05-19T05:14:37.352Z,68.18
2023-05-19T05:17:04.947Z,67.58
2023-05-19T05:19:32.953Z,66.75
2023-05-19T05:22:00.688Z,66.51
2023-05-19T05:24:28.125Z,65.95
2023-05-19T05:26:59.474Z,66.30
2023-05-19T05:29:27.022Z,65.43
2023-05-19T05:31:54.419Z,65.01
2023-05-19T05:34:22.226Z,64.89
2023-05-19T05:36:49.153Z,64.46
2023-05-19T05:39:17.232Z,63.52
2023-05-19T05:41:45.417Z,61.84
2023-05-19T05:44:12.877Z,62.12
2023-05-19T05:46:42.133Z,60.61
2023-05-19T05:49:10.270Z,59.72
2023-05-19T05:51:37.604Z,58.59
2023-05-19T05:54:06.688Z,57.81
2023-05-19T05:56:38.105Z,56.31
2023-05-19T05:59:08.020Z,56.00
2023-05-19T06:01:36.336Z,55.43
2023-05-19T06:04:05.448Z,54.41
2023-05-19T06:06:32.916Z,53.07
2023-05-19T06:09:02.140Z,51.64
2023-05-19T06:11:30.239Z,50.13
2023-05-19T06:13:58.967Z,49.65
2023-05-19T06:17:04.372Z,49.08
2023-05-19T06:19:31.982Z,49.16
2023-05-19T06:21:58.907Z,48.64
2023-05-19T06:24:26.962Z,48.57
2023-05-19T06:26:53.889Z,49.09
2023-05-19T06:29:21.061Z,49.49
2023-05-19T06:31:49.651Z,49.99
2023-05-19T06:34:17.890Z,51.63
2023-05-19T06:36:46.957Z,52.27
2023-05-19T06:39:14.450Z,52.62
2023-05-19T06:41:41.472Z,53.05
2023-05-19T06:44:11.329Z,52.81
2023-05-19T06:46:38.332Z,52.96
2023-05-19T06:49:05.532Z,54.08
2023-05-19T06:51:37.489Z,54.13
2023-05-19T06:54:04.502Z,53.93
2023-05-19T06:56:31.544Z,53.83
2023-05-19T06:58:58.588Z,53.83
2023-05-19T07:01:31.918Z,53.85
2023-05-19T07:03:59.592Z,53.69
2023-05-19T07:06:26.755Z,53.60
2023-05-19T07:08:53.834Z,53.80
2023-05-19T07:11:21.841Z,54.04
2023-05-19T07:13:49.191Z,53.84
2023-05-19T07:16:22.742Z,53.67
2023-05-19T07:18:49.779Z,52.77
2023-05-19T07:21:16.849Z,52.97
2023-05-19T07:23:43.861Z,52.24
2023-05-19T07:26:11.768Z,52.66
2023-05-19T07:28:40.790Z,52.39
2023-05-19T07:31:08.577Z,50.37
2023-05-19T07:33:35.519Z,50.08
2023-05-19T07:36:02.603Z,49.05
2023-05-19T07:38:31.534Z,48.38
2023-05-19T07:40:58.485Z,46.90
2023-05-19T07:43:25.593Z,45.92
2023-05-19T07:45:53.779Z,44.80
2023-05-19T07:48:22.531Z,43.64
2023-05-19T07:50:49.692Z,40.89
2023-05-19T07:53:16.855Z,38.45
2023-05-19T07:55:43.897Z,37.00
2023-05-19T07:58:10.864Z,35.17
2023-05-19T08:00:38.114Z,35.11
2023-05-19T08:03:05.108Z,35.80
2023-05-19T08:05:32.201Z,35.75
2023-05-19T08:07:59.138Z,36.27
2023-05-19T08:10:26.098Z,35.93
2023-05-19T08:12:54.460Z,36.32
2023-05-19T08:15:21.891Z,36.37
2023-05-19T08:17:49.198Z,36.88
2023-05-19T08:20:16.345Z,37.26
2023-05-19T08:22:43.327Z,37.59
2023-05-19T08:25:10.489Z,37.46
2023-05-19T08:27:37.383Z,38.26
2023-05-19T08:30:04.619Z,38.51
2023-05-19T08:32:31.652Z,38.69
2023-05-19T08:34:59.803Z,39.01
2023-05-19T08:37:26.732Z,38.47
2023-05-19T08:39:53.716Z,39.23
2023-05-19T08:42:20.650Z,38.80
2023-05-19T08:44:47.601Z,37.45
2023-05-19T08:47:15.356Z,36.76
2023-05-19T08:49:47.366Z,36.68
2023-05-19T08:52:23.416Z,35.31
2023-05-19T08:54:55.941Z,34.58
2023-05-19T08:57:25.099Z,34.17
2023-05-19T08:59:53.370Z,33.28
2023-05-19T09:02:21.649Z,32.63
2023-05-19T09:04:49.537Z,32.56
2023-05-19T09:07:16.824Z,32.60
2023-05-19T09:09:44.129Z,31.78
2023-05-19T09:12:11.772Z,32.00
2023-05-19T09:14:39.163Z,32.83
2023-05-19T09:17:06.765Z,33.48
2023-05-19T09:19:34.020Z,34.12
2023-05-19T09:22:03.882Z,35.23
2023-05-19T09:24:31.767Z,36.18
2023-05-19T09:27:00.274Z,37.61
2023-05-19T09:29:27.389Z,38.32
2023-05-19T09:32:01.726Z,40.09
2023-05-19T09:34:28.746Z,38.69
2023-05-19T09:36:55.653Z,38.56
2023-05-19T09:39:23.608Z,36.82
2023-05-19T09:41:54.813Z,36.28
2023-05-19T09:44:28.977Z,35.82
2023-05-19T09:46:56.534Z,34.95
2023-05-19T09:49:25.478Z,33.79
2023-05-19T09:51:57.262Z,32.59
2023-05-19T09:54:25.553Z,32.07
2023-05-19T09:57:03.826Z,31.61
2023-05-19T09:59:33.730Z,31.78
2023-05-19T10:02:02.524Z,32.25
2023-05-19T10:04:31.289Z,32.73
2023-05-19T10:07:05.655Z,33.43
2023-05-19T10:09:34.231Z,35.92
2023-05-19T10:12:02.470Z,36.15
2023-05-19T10:14:30.138Z,38.19
2023-05-19T10:17:00.280Z,40.29
2023-05-19T10:19:29.237Z,40.31
2023-05-19T10:21:56.903Z,41.04
2023-05-19T10:24:23.958Z,40.05
2023-05-19T10:26:56.557Z,40.07
2023-05-19T10:29:28.953Z,39.71
2023-05-19T10:31:59.936Z,39.12
2023-05-19T10:35:24.197Z,38.64
2023-05-19T10:38:18.443Z,38.83
2023-05-19T10:40:55.161Z,36.98
2023-05-19T10:43:36.420Z,36.75
2023-05-19T10:46:05.257Z,34.78
2023-05-19T10:48:38.649Z,33.16
2023-05-19T10:51:06.199Z,32.99
2023-05-19T10:53:33.587Z,34.86
2023-05-19T10:56:07.000Z,36.34
2023-05-19T10:58:36.923Z,36.08
2023-05-19T11:01:17.049Z,38.40
2023-05-19T11:03:57.081Z,39.60
2023-05-19T11:06:30.241Z,39.20
2023-05-19T11:08:58.167Z,39.09
2023-05-19T11:11:25.145Z,38.90
2023-05-19T11:13:56.454Z,38.23
2023-05-19T11:16:32.429Z,38.42
2023-05-19T11:19:00.277Z,39.14
2023-05-19T11:21:52.777Z,39.07
2023-05-19T11:24:53.010Z,38.29
2023-05-19T11:27:38.347Z,37.17
2023-05-19T11:30:14.645Z,36.26
2023-05-19T11:32:45.067Z,38.20
2023-05-19T11:35:12.651Z,36.99
2023-05-19T11:37:40.756Z,37.21
2023-05-19T11:40:08.312Z,38.51
2023-05-19T11:42:37.179Z,38.04
2023-05-19T11:45:06.519Z,38.63
2023-05-19T11:47:42.579Z,36.90
2023-05-19T11:50:20.354Z,37.34
2023-05-19T11:52:48.028Z,36.44
2023-05-19T11:55:25.331Z,35.95
2023-05-19T11:58:05.647Z,35.37
2023-05-19T12:00:38.044Z,34.65
2023-05-19T12:03:06.013Z,34.63
2023-05-19T12:05:39.908Z,34.71
2023-05-19T12:08:09.181Z,36.07
2023-05-19T12:10:36.494Z,35.93
2023-05-19T12:13:03.704Z,34.97
2023-05-19T12:15:31.941Z,35.67
2023-05-19T12:18:03.553Z,34.95
2023-05-19T12:20:36.045Z,35.04
2023-05-19T12:23:04.182Z,35.73
2023-05-19T12:25:32.105Z,34.70
2023-05-19T12:28:02.990Z,35.51
2023-05-19T12:30:31.689Z,36.65
2023-05-19T12:32:59.052Z,37.51
2023-05-19T12:35:30.586Z,36.11
2023-05-19T12:38:02.384Z,35.71
2023-05-19T12:40:30.182Z,35.75
2023-05-19T12:42:59.325Z,35.46
2023-05-19T12:45:28.581Z,35.70
2023-05-19T12:47:56.207Z,35.41
2023-05-19T12:50:31.035Z,34.98
2023-05-19T12:53:00.027Z,34.13
2023-05-19T12:55:27.118Z,34.00
2023-05-19T12:57:58.026Z,33.73
2023-05-19T13:00:29.299Z,33.05
2023-05-19T13:03:05.710Z,33.04
2023-05-19T13:05:38.323Z,33.35
2023-05-19T13:08:06.820Z,34.24
2023-05-19T13:10:35.502Z,32.90
2023-05-19T13:13:03.223Z,32.22
2023-05-19T13:15:34.459Z,31.80
2023-05-19T13:18:03.601Z,33.12
2023-05-19T13:20:31.118Z,34.95
2023-05-19T13:22:58.365Z,33.76
2023-05-19T13:25:25.794Z,32.12
2023-05-19T13:27:52.930Z,33.59
2023-05-19T13:30:21.056Z,31.35
2023-05-19T13:32:48.442Z,33.17
2023-05-19T13:35:15.981Z,32.50
2023-05-19T13:37:43.158Z,32.70
2023-05-19T13:40:11.216Z,32.57
2023-05-19T13:42:38.320Z,33.39
2023-05-19T13:45:05.682Z,32.50
2023-05-19T13:47:32.766Z,33.23
2023-05-19T13:49:59.826Z,32.57
2023-05-19T13:52:28.373Z,31.71
2023-05-19T13:54:57.738Z,31.21
2023-05-19T13:57:25.613Z,31.17
2023-05-19T14:00:01.807Z,31.35
2023-05-19T14:02:39.945Z,30.97
2023-05-19T14:05:07.570Z,30.59
2023-05-19T14:07:35.206Z,30.23
2023-05-19T14:10:06.936Z,31.01
2023-05-19T14:12:45.068Z,32.28
2023-05-19T14:15:19.886Z,33.49
2023-05-19T14:17:49.046Z,32.03
2023-05-19T14:20:16.240Z,32.59
2023-05-19T14:22:43.261Z,33.80
2023-05-19T14:25:10.429Z,32.80
2023-05-19T14:27:37.575Z,33.18
2023-05-19T14:30:04.858Z,32.88
2023-05-19T14:32:31.785Z,33.93
2023-05-19T14:34:58.732Z,33.63
2023-05-19T14:37:28.910Z,33.44
2023-05-19T14:39:57.139Z,34.17
2023-05-19T14:42:24.461Z,34.24
2023-05-19T14:44:51.367Z,33.81
2023-05-19T14:47:18.220Z,34.19
2023-05-19T14:49:45.107Z,33.93
2023-05-19T14:52:11.972Z,32.54
2023-05-19T14:54:38.918Z,33.73
2023-05-19T14:57:07.345Z,33.57
2023-05-19T14:59:37.949Z,32.79
2023-05-19T15:02:05.525Z,32.17
2023-05-19T15:04:32.469Z,32.16
2023-05-19T15:09:30.711Z,32.67
2023-05-19T15:11:58.111Z,32.93
2023-05-19T15:14:25.256Z,33.10
2023-05-19T15:16:53.141Z,33.76
2023-05-19T15:19:20.148Z,34.76
2023-05-19T15:21:50.581Z,34.00
2023-05-19T15:24:17.543Z,34.10
2023-05-19T15:26:44.494Z,34.64
2023-05-19T15:29:11.430Z,34.08
2023-05-19T15:31:38.733Z,33.75
2023-05-19T15:34:05.910Z,34.31
2023-05-19T15:36:32.831Z,34.63
2023-05-19T15:38:59.917Z,33.90
2023-05-19T15:41:26.835Z,34.18
2023-05-19T15:43:53.994Z,33.98
2023-05-19T15:46:21.071Z,34.18
2023-05-19T15:48:48.053Z,34.53
2023-05-19T15:51:15.156Z,34.93
2023-05-19T15:53:42.084Z,35.21
2023-05-19T15:56:08.955Z,35.08
2023-05-19T15:58:35.895Z,35.05
2023-05-19T16:01:03.153Z,35.92
2023-05-19T16:03:30.228Z,36.27
2023-05-19T16:05:57.779Z,35.73
2023-05-19T16:08:25.306Z,36.56
2023-05-19T16:10:52.365Z,36.98
2023-05-19T16:13:19.255Z,37.20
2023-05-19T16:15:46.218Z,37.64
2023-05-19T16:18:13.273Z,37.82
2023-05-19T16:20:40.478Z,38.17
2023-05-19T16:23:07.556Z,38.62
2023-05-19T16:25:34.575Z,39.17
2023-05-19T16:28:01.605Z,39.84
2023-05-19T16:30:28.491Z,41.45
2023-05-19T16:32:55.469Z,42.22
2023-05-19T16:35:22.776Z,43.13
2023-05-19T16:37:49.901Z,44.01
2023-05-19T16:40:16.887Z,44.61
2023-05-19T16:42:43.750Z,45.25
2023-05-19T16:45:10.750Z,45.88
2023-05-19T16:47:37.778Z,46.09
2023-05-19T16:50:04.927Z,46.41
2023-05-19T16:52:31.911Z,46.80
2023-05-19T16:54:58.851Z,46.95
2023-05-19T16:57:25.824Z,47.58
2023-05-19T16:59:53.457Z,47.40
2023-05-19T17:02:20.396Z,47.79
2023-05-19T17:04:47.353Z,47.86
2023-05-19T17:07:17.594Z,47.99
2023-05-19T17:09:44.872Z,48.41
2023-05-19T17:12:11.733Z,48.80
2023-05-19T17:14:38.677Z,48.86
2023-05-19T17:17:05.836Z,49.21
2023-05-19T17:19:32.943Z,49.07
2023-05-19T17:22:00.043Z,49.63
2023-05-19T17:24:28.901Z,49.73
2023-05-19T17:26:55.943Z,50.20
2023-05-19T17:29:22.991Z,50.41
2023-05-19T17:31:49.960Z,50.56
2023-05-19T17:34:16.850Z,50.87
2023-05-19T17:36:43.733Z,50.98
2023-05-19T17:39:10.821Z,50.94
2023-05-19T17:41:37.805Z,51.66
2023-05-19T17:44:06.792Z,51.67
2023-05-19T17:46:38.831Z,51.84
2023-05-19T17:49:06.487Z,52.23
2023-05-19T17:51:33.990Z,52.65
2023-05-19T17:54:01.170Z,53.23
2023-05-19T17:56:31.945Z,53.91
2023-05-19T17:58:59.037Z,53.34
2023-05-19T18:01:26.299Z,54.30
2023-05-19T18:03:53.534Z,54.66
2023-05-19T18:06:20.981Z,55.02
2023-05-19T18:08:50.702Z,55.29
2023-05-19T18:11:18.696Z,54.87
2023-05-19T18:13:45.797Z,55.95
2023-05-19T18:16:12.906Z,55.98
2023-05-19T18:18:43.573Z,56.28
2023-05-19T18:21:17.766Z,56.16
2023-05-19T18:23:46.086Z,56.64
2023-05-19T18:26:13.231Z,57.32
2023-05-19T18:28:41.324Z,57.90
2023-05-19T18:31:17.433Z,58.66
2023-05-19T18:33:45.536Z,58.69
2023-05-19T18:36:13.646Z,58.48
2023-05-19T18:38:41.254Z,58.53
2023-05-19T18:41:08.459Z,58.21
2023-05-19T18:43:35.600Z,58.35
2023-05-19T18:46:02.623Z,58.67
2023-05-19T18:48:29.677Z,59.37
2023-05-19T18:50:57.366Z,59.08
2023-05-19T18:53:24.307Z,60.41
2023-05-19T18:55:51.413Z,60.60
2023-05-19T18:58:18.882Z,61.58
2023-05-19T19:00:45.988Z,61.59
2023-05-19T19:03:13.029Z,61.76
2023-05-19T19:05:40.238Z,61.64
2023-05-19T19:08:07.163Z,62.16
2023-05-19T19:10:38.992Z,62.37
2023-05-19T19:13:06.393Z,63.10
2023-05-19T19:15:33.378Z,62.77
2023-05-19T19:18:00.593Z,62.70
2023-05-19T19:20:27.697Z,65.09
2023-05-19T19:22:54.718Z,66.59
2023-05-19T19:25:23.560Z,66.68
2023-05-19T19:27:51.301Z,66.75
2023-05-19T19:30:19.620Z,68.28
2023-05-19T19:32:46.541Z,68.69
2023-05-19T19:35:13.591Z,68.52
2023-05-19T19:37:40.490Z,69.33
2023-05-19T19:40:07.934Z,69.29
2023-05-19T19:42:35.180Z,69.58
2023-05-19T19:45:02.285Z,71.00
2023-05-19T19:47:29.370Z,71.93
2023-05-19T19:49:56.489Z,71.85
2023-05-19T19:52:23.743Z,72.25
2023-05-19T19:54:50.677Z,72.13
2023-05-19T19:57:17.590Z,71.95
2023-05-19T19:59:44.804Z,72.06
2023-05-19T20:02:11.870Z,71.86
2023-05-19T20:04:38.863Z,72.24
2023-05-19T20:07:05.930Z,72.77
2023-05-19T20:09:32.822Z,71.80
2023-05-19T20:11:59.811Z,72.60
2023-05-19T20:14:26.853Z,71.51
2023-05-19T20:16:53.791Z,71.15
2023-05-19T20:19:21.166Z,72.11
2023-05-19T20:21:48.086Z,73.29
2023-05-19T20:24:15.149Z,72.64
2023-05-19T20:26:42.077Z,73.39
2023-05-19T20:29:08.979Z,73.57
2023-05-19T20:31:35.904Z,75.11
2023-05-19T20:34:02.894Z,74.73
2023-05-19T20:36:29.864Z,75.57
2023-05-19T20:38:56.812Z,75.39
2023-05-19T20:41:23.775Z,74.84
2023-05-19T20:43:51.016Z,74.71
2023-05-19T20:46:18.045Z,75.19
2023-05-19T20:48:45.015Z,75.92
2023-05-19T20:51:11.924Z,76.53
2023-05-19T20:53:38.871Z,77.27
2023-05-19T20:56:06.905Z,77.31
2023-05-19T20:58:33.885Z,77.79
2023-05-19T21:01:00.826Z,77.21
2023-05-19T21:03:29.057Z,76.95
2023-05-19T21:05:56.518Z,77.02
2023-05-19T21:08:23.837Z,76.89
2023-05-19T21:10:51.364Z,77.89
2023-05-19T21:13:18.997Z,77.27
2023-05-19T21:15:46.833Z,77.89
2023-05-19T21:18:14.005Z,77.86
2023-05-19T21:20:41.004Z,77.60
2023-05-19T21:23:07.880Z,77.59
2023-05-19T21:25:34.931Z,77.42
2023-05-19T21:28:01.827Z,77.18
2023-05-19T21:30:28.871Z,77.03
2023-05-19T21:32:55.902Z,76.58
2023-05-19T21:35:23.002Z,76.09
2023-05-19T21:37:49.920Z,75.49
2023-05-19T21:40:16.915Z,75.13
2023-05-19T21:42:43.844Z,75.28
2023-05-19T21:45:11.220Z,74.80
2023-05-19T21:47:38.277Z,74.80
2023-05-19T21:50:05.612Z,74.66
2023-05-19T21:52:32.640Z,74.10
2023-05-19T21:54:59.527Z,73.38
2023-05-19T21:57:26.446Z,72.96
2023-05-19T21:59:53.409Z,73.00
2023-05-19T22:02:21.274Z,73.02
2023-05-19T22:04:48.217Z,73.22
2023-05-19T22:07:15.228Z,73.61
2023-05-19T22:09:42.244Z,73.39
2023-05-19T22:12:09.409Z,73.37
2023-05-19T22:14:36.531Z,73.71
2023-05-19T22:17:03.580Z,73.73
2023-05-19T22:19:30.557Z,73.95
2023-05-19T22:22:09.804Z,73.66
2023-05-19T22:24:40.794Z,73.28
2023-05-19T22:27:08.383Z,73.28
2023-05-19T22:29:38.443Z,73.38
2023-05-19T22:32:07.719Z,73.51
2023-05-19T22:34:34.819Z,74.28
2023-05-19T22:37:02.025Z,74.35
2023-05-19T22:39:28.984Z,75.09
2023-05-19T22:41:56.077Z,74.99
2023-05-19T22:44:23.054Z,75.54
2023-05-19T22:46:49.973Z,75.70
2023-05-19T22:49:16.947Z,76.18
2023-05-19T22:51:43.886Z,76.58
2023-05-19T22:54:10.851Z,77.22
2023-05-19T22:56:37.947Z,76.81
2023-05-19T22:59:04.836Z,76.97
2023-05-19T23:01:31.796Z,76.84
2023-05-19T23:03:58.731Z,78.36
2023-05-19T23:06:25.820Z,78.59
2023-05-19T23:09:01.130Z,79.26
2023-05-19T23:11:28.328Z,79.02
2023-05-19T23:13:55.268Z,79.75
2023-05-19T23:16:22.772Z,79.90
2023-05-19T23:18:49.799Z,79.98
2023-05-19T23:21:16.654Z,80.85
2023-05-19T23:23:43.610Z,80.51
2023-05-19T23:26:13.348Z,80.82
2023-05-19T23:28:42.171Z,80.93
2023-05-19T23:31:09.553Z,81.43
2023-05-19T23:33:36.684Z,81.10
2023-05-19T23:36:09.358Z,80.90
2023-05-19T23:38:37.692Z,81.75
2023-05-19T23:41:05.649Z,81.74
2023-05-19T23:43:32.782Z,81.74
2023-05-19T23:46:00.231Z,82.22
2023-05-19T23:48:29.002Z,82.46
2023-05-19T23:50:57.090Z,82.14
2023-05-19T23:53:24.587Z,82.11
2023-05-19T23:55:51.723Z,82.15
2023-05-19T23:58:18.833Z,82.16
